Time;durP1;ratioP1;P1;durP2;ratioP2;P2;SDS_P1;SDS_P2;PMS_P1;PMS_P2;Temp;Humidity;BMP_temperature;BMP_pressure;BME280_temperature;BME280_humidity;BME280_pressure;Samples;Min_cycle;Max_cycle;Signal;HPM_P1;HPM_P2
2022/07/12 00:02:09;;;;;;;5.68;2.97;;;12.70;99.90;;;;;;5040366;28;20262;-54
2022/07/12 00:04:36;;;;;;;2.92;2.70;;;12.90;99.90;;;;;;5041059;28;20446;-57
2022/07/12 00:07:04;;;;;;;4.50;3.10;;;12.90;99.90;;;;;;5041204;28;20216;-57
2022/07/12 00:09:31;;;;;;;2.95;2.75;;;12.80;99.90;;;;;;5041603;28;20204;-57
2022/07/12 00:11:58;;;;;;;3.67;3.38;;;13.00;99.90;;;;;;5041170;28;20208;-57
2022/07/12 00:14:26;;;;;;;2.97;2.78;;;12.80;99.90;;;;;;5041251;28;20222;-57
2022/07/12 00:16:53;;;;;;;4.22;3.83;;;12.90;99.90;;;;;;5041361;28;20291;-58
2022/07/12 00:19:21;;;;;;;3.30;3.00;;;12.80;99.90;;;;;;5040721;28;20238;-56
2022/07/12 00:21:48;;;;;;;3.55;3.20;;;13.00;99.90;;;;;;5041129;28;20228;-57
2022/07/12 00:24:15;;;;;;;4.40;2.83;;;13.00;99.90;;;;;;5040897;28;20196;-58
2022/07/12 00:26:43;;;;;;;5.05;3.13;;;13.00;99.90;;;;;;5041209;28;20224;-58
2022/07/12 00:29:10;;;;;;;3.45;2.90;;;12.90;99.90;;;;;;5041066;28;20196;-56
2022/07/12 00:31:37;;;;;;;5.97;3.35;;;12.80;99.90;;;;;;5041099;28;20200;-57
2022/07/12 00:34:04;;;;;;;3.90;3.60;;;12.80;99.90;;;;;;5041164;28;20208;-58
2022/07/12 00:36:32;;;;;;;3.00;2.70;;;12.80;99.90;;;;;;5040682;28;20235;-57
2022/07/12 00:38:59;;;;;;;3.53;2.95;;;12.80;99.90;;;;;;5041043;28;20410;-56
2022/07/12 00:41:26;;;;;;;5.00;3.67;;;12.60;99.90;;;;;;5040871;28;20220;-57
2022/07/12 00:43:53;;;;;;;3.50;3.22;;;12.50;99.90;;;;;;5040790;28;20199;-56
2022/07/12 00:46:23;;;;;;;3.03;2.83;;;12.50;99.90;;;;;;5040317;28;20266;-57
2022/07/12 00:48:51;;;;;;;3.53;3.22;;;12.60;99.90;;;;;;5040240;28;20506;-57
2022/07/12 00:51:18;;;;;;;3.60;3.30;;;12.70;99.90;;;;;;5040516;28;20511;-55
2022/07/12 00:53:46;;;;;;;2.35;2.20;;;12.70;99.90;;;;;;5040481;28;20210;-56
2022/07/12 00:56:14;;;;;;;3.47;3.17;;;12.70;99.90;;;;;;5040431;28;20439;-56
2022/07/12 00:58:43;;;;;;;5.15;2.92;;;12.70;99.90;;;;;;5040585;28;20398;-57
2022/07/12 01:01:10;;;;;;;3.90;2.75;;;12.70;99.90;;;;;;5040655;28;20456;-55
2022/07/12 01:03:37;;;;;;;5.18;3.40;;;12.60;99.90;;;;;;5040728;28;20199;-57
2022/07/12 01:06:07;;;;;;;6.50;3.60;;;12.60;99.90;;;;;;5040391;28;20481;-56
2022/07/12 01:08:34;;;;;;;3.80;2.97;;;12.60;99.90;;;;;;5040600;28;20199;-56
2022/07/12 01:11:03;;;;;;;3.60;3.30;;;12.50;99.90;;;;;;5040352;28;20537;-55
2022/07/12 01:13:30;;;;;;;3.55;3.33;;;12.40;99.90;;;;;;5040016;28;20200;-56
2022/07/12 01:15:58;;;;;;;3.17;2.75;;;12.30;99.90;;;;;;5040350;28;20446;-56
2022/07/12 01:18:27;;;;;;;4.13;3.00;;;12.20;99.90;;;;;;5040247;28;20202;-55
2022/07/12 01:20:55;;;;;;;3.63;2.60;;;12.20;99.90;;;;;;5040007;28;20193;-54
2022/07/12 01:23:24;;;;;;;4.95;2.58;;;12.30;99.90;;;;;;5040251;28;20251;-57
2022/07/12 01:25:52;;;;;;;4.22;2.95;;;12.10;99.90;;;;;;5039778;28;20226;-54
2022/07/12 01:28:19;;;;;;;7.90;2.97;;;12.00;99.90;;;;;;5040569;28;20203;-55
2022/07/12 01:30:47;;;;;;;2.78;2.58;;;12.10;99.90;;;;;;5041127;28;20249;-56
2022/07/12 01:33:16;;;;;;;6.78;3.00;;;12.20;99.90;;;;;;5040817;28;20210;-56
2022/07/12 01:35:46;;;;;;;3.05;2.75;;;12.20;99.90;;;;;;5040344;28;20227;-59
2022/07/12 01:38:13;;;;;;;2.70;2.50;;;12.20;99.90;;;;;;5039780;28;20406;-57
2022/07/12 01:40:41;;;;;;;2.55;2.35;;;12.20;99.90;;;;;;5039034;28;20297;-56
2022/07/12 01:43:08;;;;;;;4.55;2.83;;;12.30;99.90;;;;;;5040148;28;20226;-57
2022/07/12 01:45:36;;;;;;;2.70;2.50;;;12.30;99.90;;;;;;5039659;28;20223;-56
2022/07/12 01:48:04;;;;;;;4.93;3.15;;;12.30;99.90;;;;;;5039670;28;20461;-56
2022/07/12 01:50:31;;;;;;;5.25;3.13;;;12.30;99.90;;;;;;5039890;28;20208;-57
2022/07/12 01:53:00;;;;;;;5.30;2.78;;;12.30;99.90;;;;;;5039373;28;20203;-54
2022/07/12 01:55:31;;;;;;;2.80;2.60;;;12.30;99.90;;;;;;5038316;28;20223;-56
2022/07/12 01:57:59;;;;;;;3.03;2.55;;;12.30;99.90;;;;;;5039467;28;20200;-56
2022/07/12 02:00:27;;;;;;;5.30;2.72;;;12.20;99.90;;;;;;5039744;28;20247;-55
2022/07/12 02:02:54;;;;;;;3.50;2.92;;;12.20;99.90;;;;;;5039420;28;20281;-57
2022/07/12 02:05:22;;;;;;;2.92;2.72;;;12.10;99.90;;;;;;5039531;28;20289;-58
2022/07/12 02:07:51;;;;;;;3.95;2.65;;;12.20;99.90;;;;;;5039457;28;20384;-56
2022/07/12 02:10:18;;;;;;;3.13;2.92;;;12.20;99.90;;;;;;5039389;28;20226;-58
2022/07/12 02:12:46;;;;;;;3.58;3.28;;;12.20;99.90;;;;;;5039219;28;20249;-57
2022/07/12 02:15:13;;;;;;;5.13;3.85;;;12.10;99.90;;;;;;5039176;28;20223;-56
2022/07/12 02:17:41;;;;;;;6.70;3.22;;;12.10;99.90;;;;;;5039008;28;20331;-55
2022/07/12 02:20:12;;;;;;;5.90;4.57;;;12.10;99.90;;;;;;5039368;28;20218;-56
2022/07/12 02:22:39;;;;;;;4.18;3.72;;;12.10;99.90;;;;;;5039311;28;20247;-57
2022/07/12 02:25:07;;;;;;;4.80;3.80;;;12.00;99.90;;;;;;5039229;28;20405;-57
2022/07/12 02:27:34;;;;;;;4.05;3.35;;;12.10;99.90;;;;;;5038954;28;20192;-55
2022/07/12 02:30:02;;;;;;;4.65;2.50;;;12.00;99.90;;;;;;5039019;28;20199;-56
2022/07/12 02:32:30;;;;;;;3.75;2.85;;;12.00;99.90;;;;;;5038736;28;20203;-57
2022/07/12 02:34:57;;;;;;;5.28;2.85;;;12.00;99.90;;;;;;5038503;28;20208;-53
2022/07/12 02:37:25;;;;;;;5.18;3.30;;;12.00;99.90;;;;;;5038857;28;20207;-56
2022/07/12 02:40:52;;;;;;;2.45;2.30;;;11.90;99.90;;;;;;5038030;28;20541;-56
2022/07/12 02:42:39;;;;;;;6.22;2.75;;;11.90;99.90;;;;;;5038549;28;20220;-57
2022/07/12 02:45:07;;;;;;;3.25;2.78;;;11.90;99.90;;;;;;5038328;28;20499;-57
2022/07/12 02:47:37;;;;;;;7.05;3.90;;;11.90;99.90;;;;;;5039099;28;20216;-57
2022/07/12 02:50:05;;;;;;;3.85;3.10;;;11.70;99.90;;;;;;5038666;28;20244;-57
2022/07/12 02:52:34;;;;;;;4.65;4.20;;;11.80;99.90;;;;;;5038753;28;20211;-59
2022/07/12 02:55:01;;;;;;;3.38;3.08;;;11.60;99.90;;;;;;5038520;28;20272;-57
2022/07/12 02:57:29;;;;;;;3.15;2.75;;;11.70;99.90;;;;;;5038395;28;20211;-56
2022/07/12 02:59:56;;;;;;;3.92;3.53;;;11.60;99.90;;;;;;5038998;28;20375;-57
2022/07/12 03:02:24;;;;;;;3.78;2.80;;;11.60;99.90;;;;;;5038631;28;20457;-57
2022/07/12 03:04:51;;;;;;;3.78;3.47;;;11.70;99.90;;;;;;5038311;28;20244;-59
2022/07/12 03:07:18;;;;;;;5.70;3.50;;;11.60;99.90;;;;;;5038667;28;20589;-59
2022/07/12 03:09:46;;;;;;;3.42;3.13;;;11.70;99.90;;;;;;5038188;28;20403;-57
2022/07/12 03:12:13;;;;;;;2.88;2.67;;;11.80;99.90;;;;;;5038664;28;20501;-57
2022/07/12 03:14:40;;;;;;;3.78;3.00;;;11.70;99.90;;;;;;5038720;28;20204;-58
2022/07/12 03:17:08;;;;;;;5.13;3.42;;;11.70;99.90;;;;;;5038820;28;20261;-57
2022/07/12 03:19:35;;;;;;;2.90;2.53;;;11.70;99.90;;;;;;5042591;28;20203;-57
2022/07/12 03:22:02;;;;;;;5.38;3.00;;;11.60;99.90;;;;;;5042517;28;20220;-57
2022/07/12 03:24:30;;;;;;;3.67;3.38;;;11.70;99.90;;;;;;5042289;28;20502;-57
2022/07/12 03:26:57;;;;;;;3.55;2.70;;;11.70;99.90;;;;;;5042071;28;20233;-57
2022/07/12 03:29:24;;;;;;;3.28;2.97;;;11.80;99.90;;;;;;5042121;28;20293;-59
2022/07/12 03:31:51;;;;;;;4.75;3.80;;;11.80;99.90;;;;;;5043945;28;20233;-57
2022/07/12 03:34:18;;;;;;;7.85;3.22;;;12.00;99.90;;;;;;5043683;28;20429;-56
2022/07/12 03:36:45;;;;;;;3.10;2.90;;;12.30;99.90;;;;;;5042424;28;20232;-56
2022/07/12 03:39:13;;;;;;;3.35;3.05;;;12.70;99.90;;;;;;5041892;28;20208;-57
2022/07/12 03:41:40;;;;;;;3.83;1.95;;;13.30;99.90;;;;;;5042245;28;20436;-57
2022/07/12 03:44:07;;;;;;;5.88;2.70;;;14.10;99.90;;;;;;5042991;28;20204;-55
2022/07/12 03:46:34;;;;;;;2.70;2.15;;;15.10;99.90;;;;;;5053903;23;20245;-52
2022/07/12 03:49:02;;;;;;;2.80;2.30;;;15.90;99.90;;;;;;5023692;28;20204;-52
2022/07/12 03:51:29;;;;;;;5.10;3.08;;;16.10;99.90;;;;;;5023839;28;20202;-50
2022/07/12 03:53:56;;;;;;;2.75;2.10;;;16.20;99.90;;;;;;5023673;28;20559;-54
2022/07/12 03:59:09;;;;;;;3.22;1.80;;;15.50;99.90;;;;;;5023877;28;20526;-51
2022/07/12 04:01:37;;;;;;;2.10;1.90;;;15.40;99.90;;;;;;5023427;28;20217;-50
2022/07/12 04:04:04;;;;;;;2.35;1.70;;;15.30;99.90;;;;;;5023599;28;20441;-53
2022/07/12 04:06:31;;;;;;;3.25;1.80;;;15.10;99.90;;;;;;5023187;28;20232;-52
2022/07/12 04:08:58;;;;;;;2.85;1.45;;;15.10;99.90;;;;;;5023380;28;20198;-51
2022/07/12 04:11:26;;;;;;;2.15;1.50;;;15.30;99.90;;;;;;5023410;28;20217;-52
2022/07/12 04:13:53;;;;;;;2.85;1.50;;;15.40;99.90;;;;;;5023339;28;20201;-49
2022/07/12 04:16:20;;;;;;;3.20;2.00;;;15.40;99.90;;;;;;5023624;28;20231;-53
2022/07/12 04:18:47;;;;;;;6.60;3.35;;;15.50;99.90;;;;;;5023636;28;20203;-52
2022/07/12 04:21:14;;;;;;;1.92;1.83;;;15.60;99.90;;;;;;5023796;28;20434;-56
2022/07/12 04:23:42;;;;;;;3.33;2.08;;;15.80;99.90;;;;;;5023491;28;20466;-51
2022/07/12 04:26:09;;;;;;;2.75;1.85;;;16.00;99.90;;;;;;5023259;28;20218;-49
2022/07/12 04:28:37;;;;;;;7.73;2.20;;;16.30;99.90;;;;;;5022553;28;20200;-51
2022/07/12 04:31:04;;;;;;;5.13;2.27;;;16.70;99.90;;;;;;5022439;28;20437;-54
2022/07/12 04:33:31;;;;;;;8.10;2.27;;;16.60;99.90;;;;;;5022841;28;20794;-50
2022/07/12 04:35:59;;;;;;;5.07;1.70;;;16.90;99.90;;;;;;5022919;28;20459;-54
2022/07/12 04:38:27;;;;;;;4.83;2.57;;;17.20;99.90;;;;;;5022627;28;20444;-48
2022/07/12 04:40:54;;;;;;;3.07;2.73;;;17.30;99.90;;;;;;5022889;28;20784;-51
2022/07/12 04:43:24;;;;;;;2.60;2.40;;;17.20;99.90;;;;;;5022684;28;20524;-54
2022/07/12 04:45:51;;;;;;;2.90;1.70;;;17.00;99.90;;;;;;5022553;28;20505;-54
2022/07/12 04:48:18;;;;;;;4.70;2.93;;;16.70;99.90;;;;;;5022554;28;20458;-50
2022/07/12 04:50:45;;;;;;;3.93;2.50;;;16.60;99.90;;;;;;5022842;28;20441;-50
2022/07/12 04:53:12;;;;;;;4.77;2.20;;;16.50;99.90;;;;;;5022692;28;20730;-50
2022/07/12 04:55:40;;;;;;;6.00;2.60;;;16.50;99.90;;;;;;5022415;28;20456;-51
2022/07/12 04:58:07;;;;;;;2.97;2.63;;;16.50;99.90;;;;;;5022671;28;20443;-51
2022/07/12 05:00:34;;;;;;;2.43;2.20;;;16.70;99.90;;;;;;5022496;28;20437;-52
2022/07/12 05:03:01;;;;;;;5.10;2.30;;;16.70;99.90;;;;;;5022580;28;20724;-52
2022/07/12 05:05:29;;;;;;;2.43;1.70;;;16.90;99.90;;;;;;5022650;28;20456;-52
2022/07/12 05:07:56;;;;;;;5.80;2.27;;;17.00;99.90;;;;;;5022305;28;20442;-50
2022/07/12 05:10:23;;;;;;;3.90;2.17;;;16.90;99.90;;;;;;5022579;28;20440;-52
2022/07/12 05:12:50;;;;;;;1.80;1.70;;;17.10;99.90;;;;;;5021967;28;20453;-53
2022/07/12 05:15:18;;;;;;;1.83;1.73;;;17.20;99.90;;;;;;5022287;28;20450;-51
2022/07/12 05:17:45;;;;;;;3.53;2.60;;;17.10;99.90;;;;;;5021965;28;20786;-51
2022/07/12 05:20:12;;;;;;;9.17;2.50;;;17.20;99.90;;;;;;5022146;28;20421;-52
2022/07/12 05:22:41;;;;;;;6.87;2.67;;;17.30;99.90;;;;;;5022035;28;20516;-51
2022/07/12 05:25:09;;;;;;;3.03;2.63;;;17.40;99.90;;;;;;5022194;28;20610;-51
2022/07/12 05:27:36;;;;;;;2.23;1.57;;;17.60;99.90;;;;;;5021735;28;20454;-48
2022/07/12 05:30:05;;;;;;;5.27;2.23;;;18.00;99.90;;;;;;5021990;28;20438;-54
2022/07/12 05:32:32;;;;;;;3.93;1.77;;;18.30;99.90;;;;;;5021927;28;20415;-49
2022/07/12 05:34:59;;;;;;;5.30;3.50;;;18.60;99.90;;;;;;5021763;28;20448;-52
2022/07/12 05:37:26;;;;;;;6.87;2.30;;;18.70;99.90;;;;;;5021866;28;20454;-52
2022/07/12 05:39:54;;;;;;;4.70;2.07;;;18.80;99.90;;;;;;5021642;28;20772;-52
2022/07/12 05:42:21;;;;;;;4.67;2.50;;;18.70;99.90;;;;;;5021343;28;20547;-51
2022/07/12 05:44:48;;;;;;;8.57;2.27;;;18.50;99.90;;;;;;5004466;28;20460;-49
2022/07/12 05:47:15;;;;;;;1.97;1.83;;;18.30;99.90;;;;;;5021586;28;20466;-52
2022/07/12 05:49:42;;;;;;;5.87;2.20;;;18.40;99.90;;;;;;5021265;28;20434;-53
2022/07/12 05:54:56;;;;;;;2.07;1.90;;;18.60;99.90;;;;;;5021306;28;20761;-53
2022/07/12 05:57:23;;;;;;;2.33;2.17;;;18.80;99.90;;;;;;5021429;28;20681;-53
2022/07/12 05:59:50;;;;;;;6.70;2.47;;;18.90;99.90;;;;;;5021189;28;20497;-52
2022/07/12 06:02:17;;;;;;;6.47;2.60;;;19.30;99.90;;;;;;5021143;28;20473;-52
2022/07/12 06:04:44;;;;;;;3.00;2.33;;;19.40;99.90;;;;;;5020930;28;20657;-53
2022/07/12 06:07:17;;;;;;;7.80;2.50;;;19.50;99.90;;;;;;5020776;28;20446;-50
2022/07/12 06:09:44;;;;;;;2.70;2.27;;;19.70;99.90;;;;;;5021005;28;20401;-50
2022/07/12 06:12:12;;;;;;;2.70;2.10;;;19.60;99.90;;;;;;5021115;28;20691;-51
2022/07/12 06:14:42;;;;;;;3.13;1.80;;;19.60;99.90;;;;;;5020970;28;20422;-53
2022/07/12 06:17:09;;;;;;;3.10;2.30;;;19.50;99.90;;;;;;5021140;28;20446;-48
2022/07/12 06:19:36;;;;;;;3.00;2.30;;;19.60;99.90;;;;;;5020801;28;20763;-51
2022/07/12 06:22:04;;;;;;;2.30;2.00;;;19.60;99.90;;;;;;5020910;28;20701;-53
2022/07/12 06:24:31;;;;;;;3.57;3.27;;;19.80;99.90;;;;;;5021164;28;20501;-54
2022/07/12 06:26:59;;;;;;;1.97;1.87;;;20.10;99.90;;;;;;5020534;28;20462;-53
2022/07/12 06:29:26;;;;;;;5.00;2.13;;;20.70;99.90;;;;;;5020937;28;20432;-50
2022/07/12 06:31:53;;;;;;;3.10;1.40;;;21.40;99.90;;;;;;5020162;28;20433;-53
2022/07/12 06:34:20;;;;;;;2.70;1.63;;;21.90;99.90;;;;;;5020357;28;20444;-54
2022/07/12 06:36:47;;;;;;;2.00;1.20;;;21.80;99.90;;;;;;5020094;28;20439;-52
2022/07/12 06:39:14;;;;;;;1.33;1.20;;;21.60;99.90;;;;;;5020713;28;20440;-54
2022/07/12 06:41:41;;;;;;;1.03;1.00;;;21.60;99.90;;;;;;5002697;28;20757;-48
2022/07/12 06:44:08;;;;;;;2.43;1.73;;;21.50;99.90;;;;;;5020248;28;20472;-52
2022/07/12 06:46:36;;;;;;;2.23;1.23;;;21.60;99.90;;;;;;5019924;28;20470;-50
2022/07/12 06:49:03;;;;;;;1.60;1.30;;;21.70;99.90;;;;;;5020397;28;20447;-51
2022/07/12 06:51:30;;;;;;;4.90;1.47;;;21.90;99.90;;;;;;5020231;28;20437;-50
2022/07/12 06:53:57;;;;;;;2.30;1.50;;;21.90;99.90;;;;;;5020255;28;20419;-50
2022/07/12 06:56:25;;;;;;;1.50;1.30;;;22.20;99.90;;;;;;5020005;28;20462;-48
2022/07/12 06:58:52;;;;;;;2.80;1.00;;;22.60;99.90;;;;;;5020281;28;20438;-51
2022/07/12 07:01:20;;;;;;;4.80;1.30;;;23.30;99.90;;;;;;5020150;28;20408;-52
2022/07/12 07:03:47;;;;;;;2.97;1.30;;;24.40;99.90;;;;;;5020216;28;20516;-53
2022/07/12 07:06:14;;;;;;;2.30;0.90;;;25.00;99.90;;;;;;5019903;28;20447;-52
2022/07/12 07:08:41;;;;;;;1.63;1.30;;;25.30;99.90;;;;;;5020350;28;20409;-47
2022/07/12 07:11:09;;;;;;;1.50;1.40;;;26.40;99.90;;;;;;5020355;28;20422;-50
2022/07/12 07:13:36;;;;;;;0.90;0.90;;;28.30;99.10;;;;;;5020272;28;20444;-49
2022/07/12 07:16:10;;;;;;;1.20;1.20;;;29.60;93.60;;;;;;5019801;28;20438;-50
2022/07/12 07:18:37;;;;;;;0.80;0.80;;;28.80;92.10;;;;;;5020031;28;20437;-53
2022/07/12 07:21:05;;;;;;;5.43;1.27;;;28.30;92.40;;;;;;5020432;28;20476;-52
2022/07/12 07:23:32;;;;;;;0.90;0.90;;;28.70;91.00;;;;;;5020167;28;20548;-52
2022/07/12 07:25:59;;;;;;;3.57;1.80;;;29.30;88.60;;;;;;5020322;28;20425;-53
2022/07/12 07:28:30;;;;;;;2.10;1.30;;;30.60;83.10;;;;;;5019877;28;20431;-55
2022/07/12 07:31:14;;;;;;;2.40;1.63;;;31.90;81.30;;;;;;5020102;28;20676;-53
2022/07/12 07:33:41;;;;;;;2.50;1.40;;;32.20;73.60;;;;;;5019916;28;20619;-51
2022/07/12 07:36:08;;;;;;;1.40;1.30;;;30.50;74.20;;;;;;5019896;28;20809;-50
2022/07/12 07:38:35;;;;;;;0.90;0.90;;;30.00;78.30;;;;;;5020092;28;20431;-52
2022/07/12 07:41:03;;;;;;;1.87;1.00;;;30.30;76.30;;;;;;5020086;28;20418;-53
2022/07/12 07:43:30;;;;;;;4.00;1.20;;;30.80;75.60;;;;;;5019655;28;20446;-50
2022/07/12 07:45:58;;;;;;;1.13;1.00;;;31.80;72.10;;;;;;5020053;28;20548;-51
2022/07/12 07:48:25;;;;;;;0.90;0.70;;;31.00;71.90;;;;;;5020079;28;20693;-53
2022/07/12 07:50:53;;;;;;;0.80;0.80;;;30.10;76.00;;;;;;5020361;28;20442;-49
2022/07/12 07:53:21;;;;;;;2.03;0.87;;;29.70;76.60;;;;;;5002423;28;20653;-51
2022/07/12 07:55:48;;;;;;;0.80;0.80;;;29.60;77.70;;;;;;5019639;28;20441;-52
2022/07/12 07:58:15;;;;;;;2.23;1.40;;;29.80;76.90;;;;;;5020303;28;20435;-54
2022/07/12 08:00:42;;;;;;;1.07;0.83;;;30.70;76.20;;;;;;5020153;28;20689;-50
2022/07/12 08:03:10;;;;;;;1.10;0.97;;;31.50;73.50;;;;;;5019638;28;20459;-48
2022/07/12 08:05:37;;;;;;;1.23;0.90;;;32.50;70.40;;;;;;5023723;28;20475;-53
2022/07/12 08:08:05;;;;;;;2.70;1.00;;;32.30;69.20;;;;;;5022879;28;20652;-52
2022/07/12 08:10:33;;;;;;;0.80;0.80;;;32.20;68.80;;;;;;5023333;28;20459;-53
2022/07/12 08:13:00;;;;;;;1.70;1.20;;;31.40;69.00;;;;;;5023270;28;20451;-49
2022/07/12 08:15:28;;;;;;;5.13;1.00;;;32.00;68.50;;;;;;5022898;28;20769;-47
2022/07/12 08:17:55;;;;;;;1.87;1.03;;;32.20;66.00;;;;;;5023049;28;20464;-50
2022/07/12 08:20:24;;;;;;;1.10;1.00;;;31.40;66.40;;;;;;5022695;28;20435;-51
2022/07/12 08:23:12;;;;;;;6.23;1.03;;;30.60;68.60;;;;;;5022972;28;20476;-51
2022/07/12 08:25:40;;;;;;;3.67;0.80;;;31.50;66.60;;;;;;5023073;28;20455;-51
2022/07/12 08:28:07;;;;;;;17.13;1.37;;;31.80;64.30;;;;;;5022699;28;20438;-53
2022/07/12 08:30:34;;;;;;;2.20;0.93;;;31.40;63.80;;;;;;5022466;28;20425;-52
2022/07/12 08:33:10;;;;;;;1.10;1.00;;;32.50;62.80;;;;;;5022667;28;20439;-51
2022/07/12 08:35:38;;;;;;;1.00;0.77;;;33.30;61.80;;;;;;5022494;28;20836;-48
2022/07/12 08:38:05;;;;;;;0.70;0.70;;;31.50;63.40;;;;;;5022353;28;20489;-48
2022/07/12 08:40:32;;;;;;;1.67;1.17;;;29.30;66.60;;;;;;5022193;28;20469;-53
2022/07/12 08:43:00;;;;;;;0.80;0.80;;;27.10;73.70;;;;;;5005157;28;20435;-50
2022/07/12 08:45:27;;;;;;;1.33;1.23;;;25.70;79.60;;;;;;5022066;28;20677;-51
2022/07/12 08:47:55;;;;;;;0.67;0.67;;;25.10;84.10;;;;;;5022750;28;20397;-50
2022/07/12 08:50:26;;;;;;;3.80;1.10;;;25.20;81.10;;;;;;5022648;28;20455;-54
2022/07/12 08:52:55;;;;;;;1.63;0.90;;;26.80;76.30;;;;;;5022570;28;20441;-52
2022/07/12 08:55:28;;;;;;;0.83;0.83;;;27.70;71.90;;;;;;5022062;28;20414;-51
2022/07/12 08:57:57;;;;;;;1.37;0.90;;;29.80;67.80;;;;;;5022674;28;20402;-49
2022/07/12 09:00:25;;;;;;;0.70;0.70;;;30.90;64.30;;;;;;5022286;28;20592;-48
2022/07/12 09:02:58;;;;;;;1.60;0.93;;;30.40;64.20;;;;;;5022253;28;20412;-48
2022/07/12 09:05:30;;;;;;;0.70;0.70;;;29.60;66.40;;;;;;5021758;28;20458;-54
2022/07/12 09:08:05;;;;;;;1.27;0.90;;;28.40;68.30;;;;;;5022192;28;20397;-55
2022/07/12 09:10:52;;;;;;;0.97;0.90;;;29.70;66.00;;;;;;5021608;28;20428;-52
2022/07/12 09:13:19;;;;;;;1.10;0.90;;;30.50;64.80;;;;;;5022094;28;20732;-54
2022/07/12 09:15:47;;;;;;;1.53;1.10;;;31.30;63.90;;;;;;5003804;28;20514;-51
2022/07/12 09:18:16;;;;;;;1.07;0.80;;;31.90;62.40;;;;;;5022087;28;20465;-51
2022/07/12 09:20:50;;;;;;;1.03;0.90;;;31.20;62.10;;;;;;5021560;28;20414;-52
2022/07/12 09:23:17;;;;;;;1.10;1.03;;;31.10;62.70;;;;;;5021979;28;20602;-50
2022/07/12 09:25:47;;;;;;;1.57;1.20;;;32.70;60.10;;;;;;5021819;28;20493;-50
2022/07/12 09:28:15;;;;;;;2.80;1.07;;;32.50;59.50;;;;;;5021581;28;20747;-53
2022/07/12 09:30:55;;;;;;;1.70;1.13;;;31.50;60.20;;;;;;5021523;28;20785;-51
2022/07/12 09:36:10;;;;;;;0.80;0.80;;;30.80;63.00;;;;;;5021113;28;20463;-52
2022/07/12 09:38:39;;;;;;;1.90;0.83;;;28.90;67.20;;;;;;5021823;28;20442;-51
2022/07/12 09:41:07;;;;;;;1.67;1.40;;;28.00;70.00;;;;;;5021749;28;20547;-50
2022/07/12 09:43:35;;;;;;;1.10;1.00;;;26.70;74.10;;;;;;5021252;28;20494;-52
2022/07/12 09:46:02;;;;;;;1.17;0.97;;;26.00;78.10;;;;;;5022493;28;20433;-50
2022/07/12 09:48:30;;;;;;;0.63;0.63;;;25.70;80.50;;;;;;5021619;28;20534;-52
2022/07/12 09:50:58;;;;;;;0.70;0.70;;;25.30;81.70;;;;;;5021586;28;20500;-49
2022/07/12 09:53:35;;;;;;;1.17;1.07;;;25.30;82.10;;;;;;5020968;28;20485;-50
2022/07/12 09:56:05;;;;;;;1.00;0.90;;;25.40;80.70;;;;;;5021447;28;20428;-51
2022/07/12 09:59:00;;;;;;;1.30;1.10;;;25.50;80.70;;;;;;5020989;28;20422;-51
2022/07/12 10:01:30;;;;;;;1.10;0.97;;;25.80;81.60;;;;;;5021516;28;20597;-53
2022/07/12 10:04:00;;;;;;;2.90;0.93;;;26.10;75.30;;;;;;5020979;28;20596;-52
2022/07/12 10:06:29;;;;;;;1.30;1.10;;;25.80;78.40;;;;;;5003843;28;20452;-46
2022/07/12 10:09:03;;;;;;;1.30;1.13;;;26.00;78.60;;;;;;5020862;28;20904;-52
2022/07/12 10:11:31;;;;;;;1.30;1.20;;;25.60;77.50;;;;;;5021248;28;20427;-50
2022/07/12 10:14:21;;;;;;;5.63;0.80;;;25.20;79.90;;;;;;5020542;28;20737;-51
2022/07/12 10:16:52;;;;;;;1.00;0.80;;;25.00;81.00;;;;;;5021473;28;20440;-50
2022/07/12 10:19:24;;;;;;;1.20;1.10;;;25.00;79.90;;;;;;5020705;28;20494;-49
2022/07/12 10:21:56;;;;;;;1.10;1.00;;;24.60;80.50;;;;;;5021104;28;20510;-50
2022/07/12 10:24:41;;;;;;;0.77;0.77;;;24.60;81.40;;;;;;5021013;28;20445;-51
2022/07/12 10:27:14;;;;;;;2.20;1.20;;;24.40;80.40;;;;;;5020134;28;20450;-48
2022/07/12 10:29:48;;;;;;;2.03;0.90;;;24.30;82.20;;;;;;5020663;28;20481;-49
2022/07/12 10:32:33;;;;;;;0.70;0.70;;;24.40;83.80;;;;;;5021076;28;20530;-48
2022/07/12 10:35:11;;;;;;;1.13;0.87;;;24.20;84.40;;;;;;5020979;28;20442;-48
2022/07/12 10:37:38;;;;;;;1.90;1.00;;;23.80;86.00;;;;;;5020841;28;20454;-47
2022/07/12 10:40:19;;;;;;;1.93;1.03;;;23.70;87.40;;;;;;5020739;28;20409;-50
2022/07/12 10:43:09;;;;;;;1.07;0.97;;;23.60;87.40;;;;;;5020747;28;20608;-48
2022/07/12 10:45:41;;;;;;;0.83;0.83;;;23.40;88.70;;;;;;5020544;28;20482;-50
2022/07/12 10:48:12;;;;;;;0.80;0.80;;;23.50;89.20;;;;;;5020653;28;20424;-49
2022/07/12 10:51:02;;;;;;;0.70;0.70;;;23.90;88.50;;;;;;5020461;28;20481;-52
2022/07/12 10:53:34;;;;;;;1.37;1.00;;;24.20;86.90;;;;;;5020501;28;20401;-50
2022/07/12 10:56:04;;;;;;;3.17;0.97;;;24.50;86.40;;;;;;5020922;28;20432;-52
2022/07/12 10:58:34;;;;;;;0.73;0.73;;;25.20;84.30;;;;;;5020617;28;20412;-51
2022/07/12 11:01:04;;;;;;;1.00;0.90;;;25.10;83.30;;;;;;5020338;28;20740;-54
2022/07/12 11:04:06;;;;;;;2.40;0.90;;;25.00;84.20;;;;;;5017260;28;20434;-46
2022/07/12 11:06:38;;;;;;;1.40;1.30;;;24.70;83.60;;;;;;5001532;28;20429;-49
2022/07/12 11:09:07;;;;;;;1.10;1.00;;;24.50;87.10;;;;;;5021297;28;20452;-53
2022/07/12 11:11:43;;;;;;;1.10;1.00;;;24.10;87.10;;;;;;5020377;28;20409;-49
2022/07/12 11:14:11;;;;;;;1.20;1.13;;;23.70;88.30;;;;;;5020347;28;20505;-53
2022/07/12 11:16:46;;;;;;;2.50;1.33;;;23.70;88.50;;;;;;5020325;28;20436;-51
2022/07/12 11:19:14;;;;;;;2.20;0.97;;;24.20;88.20;;;;;;5020015;28;20409;-50
2022/07/12 11:21:45;;;;;;;2.37;0.90;;;24.50;86.80;;;;;;5020341;28;20413;-47
2022/07/12 11:24:19;;;;;;;2.80;0.80;;;24.90;84.50;;;;;;5020064;28;20487;-51
2022/07/12 11:26:48;;;;;;;0.90;0.70;;;25.20;84.80;;;;;;5020302;28;20450;-52
2022/07/12 11:29:16;;;;;;;2.80;0.73;;;25.20;84.40;;;;;;5020087;28;20441;-53
2022/07/12 11:31:43;;;;;;;3.23;1.17;;;25.20;83.40;;;;;;5019951;28;20457;-52
2022/07/12 11:34:24;;;;;;;1.40;1.30;;;24.80;85.60;;;;;;5020326;28;20480;-50
2022/07/12 11:36:54;;;;;;;4.00;1.80;;;24.50;85.00;;;;;;5019788;28;20461;-50
2022/07/12 11:39:34;;;;;;;0.60;0.60;;;24.30;85.90;;;;;;5022128;28;20507;-50
2022/07/12 11:42:02;;;;;;;0.80;0.80;;;24.20;87.90;;;;;;5023478;28;20434;-51
2022/07/12 11:44:43;;;;;;;0.80;0.80;;;22.90;99.90;;;;;;5023722;28;20487;-51
2022/07/12 11:47:10;;;;;;;0.80;0.70;;;21.40;99.90;;;;;;5023591;28;20473;-52
2022/07/12 11:49:44;;;;;;;3.90;1.07;;;20.80;99.90;;;;;;5023135;28;20408;-50
2022/07/12 11:52:22;;;;;;;1.33;0.97;;;20.70;99.90;;;;;;5023558;28;20482;-47
2022/07/12 11:54:51;;;;;;;2.70;1.53;;;21.00;99.90;;;;;;5023496;28;20470;-51
2022/07/12 11:57:21;;;;;;;1.37;1.27;;;21.30;99.90;;;;;;5023040;28;20480;-52
2022/07/12 11:59:48;;;;;;;0.77;0.77;;;21.60;99.90;;;;;;5023486;28;20442;-51
2022/07/12 12:02:16;;;;;;;1.00;1.00;;;22.10;99.90;;;;;;5023688;28;20737;-51
2022/07/12 12:04:54;;;;;;;1.00;0.80;;;22.60;99.90;;;;;;5023808;28;20466;-48
2022/07/12 12:07:23;;;;;;;2.30;1.07;;;22.90;99.90;;;;;;5023223;28;20474;-48
2022/07/12 12:10:10;;;;;;;1.90;1.20;;;23.30;99.90;;;;;;5023198;28;20633;-52
2022/07/12 12:12:51;;;;;;;0.93;0.80;;;23.70;98.40;;;;;;5023221;28;20405;-47
2022/07/12 12:15:23;;;;;;;2.00;1.00;;;24.10;97.10;;;;;;5023432;28;20473;-51
2022/07/12 12:17:50;;;;;;;3.13;0.90;;;24.30;95.60;;;;;;5022896;28;20416;-52
2022/07/12 12:20:20;;;;;;;3.23;1.17;;;24.20;95.20;;;;;;5022335;28;20467;-49
2022/07/12 12:22:55;;;;;;;0.80;0.80;;;24.10;94.70;;;;;;5022879;28;20758;-49
2022/07/12 12:25:24;;;;;;;1.07;0.97;;;24.20;94.90;;;;;;5022524;28;20516;-49
2022/07/12 12:28:03;;;;;;;0.80;0.80;;;24.60;93.70;;;;;;5022650;28;20410;-50
2022/07/12 12:30:52;;;;;;;0.97;0.97;;;24.70;93.70;;;;;;5023067;28;20470;-51
2022/07/12 12:33:36;;;;;;;1.33;0.90;;;24.50;94.40;;;;;;5022519;28;20805;-54
2022/07/12 12:36:13;;;;;;;0.90;0.90;;;24.20;93.60;;;;;;5022008;28;20450;-49
2022/07/12 12:38:42;;;;;;;2.50;1.57;;;24.20;94.40;;;;;;5022339;28;20723;-51
2022/07/12 12:41:10;;;;;;;0.60;0.60;;;24.10;94.40;;;;;;5023141;28;20413;-53
2022/07/12 12:43:39;;;;;;;1.07;1.07;;;24.00;95.00;;;;;;5022384;28;20434;-50
2022/07/12 12:46:06;;;;;;;0.70;0.70;;;23.90;94.30;;;;;;5022246;28;20541;-53
2022/07/12 12:48:34;;;;;;;1.10;0.80;;;23.80;92.30;;;;;;5022647;28;20408;-52
2022/07/12 12:51:07;;;;;;;0.57;0.57;;;23.90;92.80;;;;;;5021420;28;20441;-51
2022/07/12 12:53:37;;;;;;;2.40;0.90;;;24.00;93.10;;;;;;5021928;28;20432;-50
2022/07/12 12:56:14;;;;;;;1.23;1.23;;;24.10;93.30;;;;;;5021868;28;20700;-52
2022/07/12 12:58:41;;;;;;;0.70;0.70;;;24.20;92.60;;;;;;5022003;28;20580;-51
2022/07/12 13:01:09;;;;;;;0.97;0.87;;;24.30;92.40;;;;;;5004681;28;20444;-53
2022/07/12 13:03:36;;;;;;;0.50;0.50;;;24.30;92.30;;;;;;5021698;28;20505;-54
2022/07/12 13:06:04;;;;;;;2.13;1.10;;;24.20;91.80;;;;;;5021353;28;20580;-50
2022/07/12 13:08:32;;;;;;;0.70;0.70;;;24.60;91.80;;;;;;5021875;28;20708;-53